Time;durP1;ratioP1;P1;durP2;ratioP2;P2;SDS_P1;SDS_P2;PMS_P1;PMS_P2;Temp;Humidity;BMP_temperature;BMP_pressure;BME280_temperature;BME280_humidity;BME280_pressure;Samples;Min_cycle;Max_cycle;Signal;HPM_P1;HPM_P2
2022/09/08 00:02:15;;;;;;;10.70;9.77;;;18.90;99.90;;;;;;5050022;28;20185;-47
2022/09/08 00:04:42;;;;;;;9.97;9.00;;;18.90;99.90;;;;;;5049495;28;20424;-49
2022/09/08 00:07:08;;;;;;;9.87;9.03;;;18.80;99.90;;;;;;5049274;28;20428;-52
2022/09/08 00:09:34;;;;;;;9.73;8.80;;;18.70;99.90;;;;;;5049489;28;20472;-52
2022/09/08 00:12:01;;;;;;;9.30;8.50;;;18.60;99.90;;;;;;5049759;28;20428;-51
2022/09/08 00:14:28;;;;;;;9.50;8.80;;;18.50;99.90;;;;;;5049732;28;20420;-49
2022/09/08 00:16:54;;;;;;;9.77;8.97;;;18.40;99.90;;;;;;5049015;28;20467;-51
2022/09/08 00:19:20;;;;;;;9.37;8.47;;;18.40;99.90;;;;;;5048678;28;20420;-50
2022/09/08 00:21:45;;;;;;;9.20;8.30;;;18.40;99.90;;;;;;5049211;28;20424;-49
2022/09/08 00:24:11;;;;;;;8.70;8.10;;;18.40;99.90;;;;;;5048273;28;20189;-47
2022/09/08 00:26:37;;;;;;;8.43;7.80;;;18.50;99.90;;;;;;5048129;28;20197;-46
2022/09/08 00:29:02;;;;;;;8.93;8.10;;;18.40;99.90;;;;;;5049417;28;20424;-49
2022/09/08 00:31:28;;;;;;;9.57;8.73;;;18.40;99.90;;;;;;5049559;28;20217;-49
2022/09/08 00:33:54;;;;;;;8.43;7.73;;;18.60;99.90;;;;;;5049617;28;20193;-51
2022/09/08 00:36:20;;;;;;;9.00;8.20;;;18.60;99.90;;;;;;5049328;28;20225;-50
2022/09/08 00:38:51;;;;;;;8.50;7.70;;;18.60;99.90;;;;;;5047943;28;20276;-51
2022/09/08 00:41:20;;;;;;;8.90;8.20;;;18.60;99.90;;;;;;5049448;28;20177;-49
2022/09/08 00:43:50;;;;;;;8.87;8.17;;;18.60;99.90;;;;;;5049605;28;20497;-52
2022/09/08 00:46:24;;;;;;;7.97;7.23;;;18.60;99.90;;;;;;5049524;28;20421;-48
2022/09/08 00:49:19;;;;;;;8.23;7.53;;;18.50;99.90;;;;;;5048607;28;20429;-49
2022/09/08 00:51:49;;;;;;;8.20;7.50;;;18.50;99.90;;;;;;5050552;28;20485;-53
2022/09/08 00:54:17;;;;;;;9.10;8.20;;;18.50;99.90;;;;;;5049517;28;20421;-50
2022/09/08 00:56:45;;;;;;;9.40;8.60;;;18.40;99.90;;;;;;5048600;28;20448;-51
2022/09/08 00:59:12;;;;;;;8.97;8.17;;;18.40;99.90;;;;;;5049476;28;20893;-52
2022/09/08 01:01:39;;;;;;;8.43;7.67;;;18.40;99.90;;;;;;5048894;28;20420;-51
2022/09/08 01:04:05;;;;;;;7.80;7.10;;;18.30;99.90;;;;;;5049230;28;20435;-49
2022/09/08 01:12:44;;;;;;;7.50;6.80;;;18.50;99.90;;;;;;5049147;28;20546;-53
2022/09/08 01:15:21;;;;;;;8.00;7.20;;;18.60;99.90;;;;;;5049384;28;20800;-51
2022/09/08 01:17:52;;;;;;;6.93;6.40;;;18.60;99.90;;;;;;5051997;28;20474;-51
2022/09/08 01:20:27;;;;;;;8.00;7.20;;;18.70;99.90;;;;;;5055929;28;20432;-52
2022/09/08 01:23:06;;;;;;;8.00;6.50;;;18.70;99.90;;;;;;5052508;28;20418;-52
2022/09/08 01:26:09;;;;;;;8.47;7.77;;;18.70;99.90;;;;;;5052926;28;20452;-52
2022/09/08 01:28:49;;;;;;;8.27;7.10;;;18.70;99.90;;;;;;5041668;28;20420;-49
2022/09/08 01:31:17;;;;;;;8.07;7.27;;;18.80;99.90;;;;;;5052591;28;20423;-52
2022/09/08 01:33:43;;;;;;;8.27;7.47;;;18.70;99.90;;;;;;5052525;28;20420;-52
2022/09/08 01:36:15;;;;;;;7.67;6.97;;;18.70;99.90;;;;;;5052385;28;21124;-51
2022/09/08 01:38:41;;;;;;;7.40;6.90;;;18.80;99.90;;;;;;5050419;28;20193;-50
2022/09/08 01:41:07;;;;;;;6.70;6.20;;;18.80;99.90;;;;;;5052049;28;20931;-49
2022/09/08 01:43:33;;;;;;;7.10;6.57;;;18.80;99.90;;;;;;5052315;28;20457;-50
2022/09/08 01:45:59;;;;;;;6.70;6.10;;;18.80;99.90;;;;;;5052532;28;20320;-49
2022/09/08 01:48:25;;;;;;;7.63;6.83;;;18.80;99.90;;;;;;5051626;28;20571;-49
2022/09/08 01:50:51;;;;;;;7.37;6.77;;;18.80;99.90;;;;;;5052387;28;20224;-49
2022/09/08 01:53:17;;;;;;;6.73;6.20;;;18.70;99.90;;;;;;5051958;28;20421;-47
2022/09/08 01:55:46;;;;;;;7.17;6.47;;;18.80;99.90;;;;;;5049147;28;20190;-50
2022/09/08 01:58:11;;;;;;;7.63;6.97;;;18.80;99.90;;;;;;5051522;28;20420;-52
2022/09/08 02:00:41;;;;;;;7.40;6.20;;;18.80;99.90;;;;;;5052026;28;21094;-51
2022/09/08 02:03:06;;;;;;;7.13;6.53;;;18.80;99.90;;;;;;5054606;28;20736;-51
2022/09/08 02:05:32;;;;;;;6.60;6.10;;;18.70;99.90;;;;;;5051729;28;20527;-47
2022/09/08 02:07:58;;;;;;;7.40;6.80;;;18.70;99.90;;;;;;5051140;28;20247;-49
2022/09/08 02:10:23;;;;;;;7.87;7.20;;;18.70;99.90;;;;;;5051600;28;20193;-47
2022/09/08 02:12:49;;;;;;;6.93;6.23;;;18.70;99.90;;;;;;5051806;28;20186;-52
2022/09/08 02:15:15;;;;;;;7.07;6.50;;;18.70;99.90;;;;;;5051841;28;20189;-49
2022/09/08 02:17:40;;;;;;;6.80;5.90;;;18.70;99.90;;;;;;5050954;28;20744;-49
2022/09/08 02:20:06;;;;;;;6.67;5.87;;;18.80;99.90;;;;;;5055207;28;20185;-51
2022/09/08 02:22:32;;;;;;;6.53;5.93;;;18.80;99.90;;;;;;5051773;28;20186;-50
2022/09/08 02:24:58;;;;;;;6.60;6.10;;;18.80;99.90;;;;;;5051217;28;20419;-51
2022/09/08 02:27:24;;;;;;;7.07;6.37;;;18.70;99.90;;;;;;5050961;28;20217;-50
2022/09/08 02:29:49;;;;;;;5.87;5.27;;;18.70;99.90;;;;;;5051483;28;20566;-51
2022/09/08 02:32:15;;;;;;;6.77;6.17;;;18.70;99.90;;;;;;5054591;28;20190;-49
2022/09/08 02:34:41;;;;;;;6.30;5.80;;;18.70;99.90;;;;;;5051356;28;20194;-52
2022/09/08 02:37:07;;;;;;;6.10;5.60;;;18.70;99.90;;;;;;5049032;28;20217;-53
2022/09/08 02:39:32;;;;;;;7.13;6.20;;;18.70;99.90;;;;;;5051119;28;20182;-50
2022/09/08 02:41:58;;;;;;;9.70;5.63;;;18.70;99.90;;;;;;5045906;28;20182;-50
2022/09/08 02:44:24;;;;;;;6.10;5.60;;;18.70;99.90;;;;;;5051190;28;21506;-51
2022/09/08 02:46:49;;;;;;;5.80;5.23;;;18.70;99.90;;;;;;5050491;28;20198;-50
2022/09/08 02:49:15;;;;;;;6.20;5.70;;;18.70;99.90;;;;;;5051318;28;20213;-50
2022/09/08 02:51:41;;;;;;;5.93;5.40;;;18.70;99.90;;;;;;5051001;28;20190;-47
2022/09/08 02:54:06;;;;;;;6.43;5.83;;;18.70;99.90;;;;;;5050787;28;20552;-52
2022/09/08 02:56:32;;;;;;;5.53;5.03;;;18.70;99.90;;;;;;5050397;28;20680;-49
2022/09/08 02:58:59;;;;;;;5.70;5.10;;;18.80;99.90;;;;;;5050742;28;20188;-50
2022/09/08 03:01:25;;;;;;;5.30;4.90;;;18.80;99.90;;;;;;5050890;28;20454;-53
2022/09/08 03:03:51;;;;;;;6.13;5.53;;;18.80;99.90;;;;;;5050801;28;20424;-52
2022/09/08 03:06:18;;;;;;;6.20;5.70;;;18.70;99.90;;;;;;5050713;28;20213;-49
2022/09/08 03:08:45;;;;;;;6.30;5.30;;;18.70;99.90;;;;;;5049679;28;20494;-48
2022/09/08 03:11:11;;;;;;;5.60;5.10;;;18.70;99.90;;;;;;5050804;28;20451;-49
2022/09/08 03:13:39;;;;;;;6.10;5.50;;;18.70;99.90;;;;;;5050530;28;20482;-50
2022/09/08 03:16:05;;;;;;;6.37;5.87;;;18.60;99.90;;;;;;5050726;28;20460;-50
2022/09/08 03:18:31;;;;;;;5.73;5.13;;;18.70;99.90;;;;;;5049928;28;20812;-49
2022/09/08 03:21:02;;;;;;;6.70;5.33;;;18.70;99.90;;;;;;5054853;28;20543;-48
2022/09/08 03:23:28;;;;;;;6.80;6.20;;;18.70;99.90;;;;;;5050326;28;20186;-53
2022/09/08 03:25:54;;;;;;;6.67;5.40;;;18.70;99.90;;;;;;5050591;28;20424;-51
2022/09/08 03:28:22;;;;;;;6.40;5.90;;;18.70;99.90;;;;;;5049650;28;21213;-51
2022/09/08 03:30:49;;;;;;;5.27;4.77;;;18.70;99.90;;;;;;5050409;28;20424;-49
2022/09/08 03:33:15;;;;;;;4.77;4.33;;;18.80;99.90;;;;;;5050115;28;20981;-47
2022/09/08 03:35:41;;;;;;;6.00;5.20;;;18.80;99.90;;;;;;5050077;28;20486;-51
2022/09/08 03:38:07;;;;;;;5.40;4.73;;;18.80;99.90;;;;;;5047524;28;20468;-50
2022/09/08 03:40:34;;;;;;;4.30;4.00;;;18.80;99.90;;;;;;5050103;28;20428;-49
2022/09/08 03:43:00;;;;;;;7.23;4.60;;;18.80;99.90;;;;;;5050269;28;20269;-51
2022/09/08 03:45:26;;;;;;;5.20;4.80;;;18.90;99.90;;;;;;5050077;28;20546;-51
2022/09/08 03:47:52;;;;;;;8.77;4.33;;;18.90;99.90;;;;;;5049462;28;20922;-46
2022/09/08 03:50:18;;;;;;;4.83;4.43;;;18.90;99.90;;;;;;5049789;28;20195;-49
2022/09/08 03:52:44;;;;;;;4.57;4.13;;;18.80;99.90;;;;;;5049996;28;20507;-49
2022/09/08 03:55:10;;;;;;;4.70;4.27;;;18.90;99.90;;;;;;5049755;28;20200;-50
2022/09/08 03:57:37;;;;;;;4.30;3.90;;;18.90;99.90;;;;;;5049310;28;20213;-47
2022/09/08 04:00:05;;;;;;;3.70;3.40;;;18.90;99.90;;;;;;5048643;28;20436;-51
2022/09/08 04:02:30;;;;;;;4.40;4.00;;;18.80;99.90;;;;;;5049811;28;20484;-49
2022/09/08 04:04:57;;;;;;;5.17;3.70;;;18.80;99.90;;;;;;5049388;28;20440;-47
2022/09/08 04:07:29;;;;;;;3.33;3.03;;;18.80;99.90;;;;;;5049294;28;20190;-49
2022/09/08 04:09:56;;;;;;;3.30;2.60;;;18.90;99.90;;;;;;5049703;28;20434;-52
2022/09/08 04:12:23;;;;;;;3.17;2.70;;;18.90;99.90;;;;;;5049392;28;20424;-50
2022/09/08 04:14:49;;;;;;;4.93;3.53;;;19.00;99.90;;;;;;5048688;28;20973;-48
2022/09/08 04:17:16;;;;;;;2.50;2.13;;;18.90;99.90;;;;;;5047961;28;21051;-46
2022/09/08 04:19:42;;;;;;;4.17;3.10;;;19.00;99.90;;;;;;5053436;28;20435;-52
2022/09/08 04:22:08;;;;;;;2.40;2.20;;;19.10;99.90;;;;;;5049772;28;21050;-49
2022/09/08 04:24:34;;;;;;;2.73;2.53;;;19.10;99.90;;;;;;5047059;28;20570;-48
2022/09/08 04:27:00;;;;;;;2.13;1.90;;;19.20;99.90;;;;;;5048824;28;20460;-50
2022/09/08 04:29:26;;;;;;;3.43;2.50;;;19.20;99.90;;;;;;5046816;28;20182;-47
2022/09/08 04:31:52;;;;;;;3.83;2.60;;;19.20;99.90;;;;;;5049456;28;20691;-52
2022/09/08 04:34:17;;;;;;;3.33;2.60;;;19.30;99.90;;;;;;5049449;28;20527;-49
2022/09/08 04:36:44;;;;;;;3.10;2.80;;;19.30;99.90;;;;;;5047423;28;20575;-49
2022/09/08 04:39:10;;;;;;;2.80;2.60;;;19.30;99.90;;;;;;5045819;28;20190;-51
2022/09/08 04:41:36;;;;;;;3.10;2.87;;;19.30;99.90;;;;;;5047737;28;20432;-50
2022/09/08 04:44:03;;;;;;;3.10;2.90;;;19.30;99.90;;;;;;5050315;28;20549;-52
2022/09/08 04:46:31;;;;;;;3.00;2.70;;;19.30;99.90;;;;;;5039844;28;20424;-49
2022/09/08 04:48:58;;;;;;;3.13;2.93;;;19.30;99.90;;;;;;5049307;28;20440;-48
2022/09/08 04:51:26;;;;;;;3.73;3.33;;;19.40;99.90;;;;;;5047198;28;20417;-49
2022/09/08 04:53:52;;;;;;;3.87;3.10;;;19.40;99.90;;;;;;5049061;28;20420;-49
2022/09/08 04:56:19;;;;;;;3.60;3.30;;;19.30;99.90;;;;;;5052974;28;20505;-47
2022/09/08 04:58:46;;;;;;;3.90;3.10;;;19.20;99.90;;;;;;5056379;28;20432;-48
2022/09/08 05:01:19;;;;;;;3.77;3.47;;;19.20;99.90;;;;;;5053011;28;20432;-50
2022/09/08 05:03:45;;;;;;;2.90;2.60;;;19.10;99.90;;;;;;5051822;28;20462;-52
2022/09/08 05:06:15;;;;;;;5.13;4.10;;;19.00;99.90;;;;;;5053181;28;20448;-48
2022/09/08 05:08:46;;;;;;;3.40;3.10;;;18.90;99.90;;;;;;5052151;28;20435;-51
2022/09/08 05:11:12;;;;;;;3.70;3.40;;;18.70;99.90;;;;;;5053157;28;20424;-50
2022/09/08 05:13:39;;;;;;;3.87;3.40;;;18.70;99.90;;;;;;5052518;28;20424;-51
2022/09/08 05:16:06;;;;;;;3.90;3.07;;;18.60;99.90;;;;;;5052890;28;20432;-52
2022/09/08 05:18:32;;;;;;;5.00;3.00;;;18.50;99.90;;;;;;5052037;28;20914;-51
2022/09/08 05:20:57;;;;;;;3.90;3.43;;;18.50;99.90;;;;;;5056267;28;20424;-49
2022/09/08 05:23:23;;;;;;;3.37;3.07;;;18.40;99.90;;;;;;5052629;28;20178;-52
2022/09/08 05:26:06;;;;;;;4.73;3.20;;;18.40;99.90;;;;;;5052849;28;20220;-48
2022/09/08 05:28:35;;;;;;;3.80;3.40;;;18.30;99.90;;;;;;5040464;28;20420;-49
2022/09/08 05:31:01;;;;;;;3.63;3.33;;;18.30;99.90;;;;;;5052686;28;20408;-47
2022/09/08 05:33:27;;;;;;;3.50;3.20;;;18.30;99.90;;;;;;5052476;28;20473;-50
2022/09/08 05:35:53;;;;;;;3.97;3.60;;;18.30;99.90;;;;;;5052548;28;20937;-47
2022/09/08 05:38:19;;;;;;;3.50;3.20;;;18.30;99.90;;;;;;5050856;28;20463;-52
2022/09/08 05:40:45;;;;;;;5.00;3.00;;;18.30;99.90;;;;;;5050999;28;20188;-53
2022/09/08 05:43:11;;;;;;;3.23;2.97;;;18.20;99.90;;;;;;5052374;28;20420;-50
2022/09/08 05:45:37;;;;;;;5.53;3.07;;;18.20;99.90;;;;;;5055454;28;20518;-47
2022/09/08 05:48:03;;;;;;;5.13;3.90;;;18.10;99.90;;;;;;5071840;28;20998;-50
2022/09/08 05:50:34;;;;;;;3.47;3.07;;;18.10;99.90;;;;;;5057462;28;20193;-50
2022/09/08 05:53:01;;;;;;;4.87;3.27;;;18.10;99.90;;;;;;5051528;28;20475;-51
2022/09/08 05:55:28;;;;;;;4.37;2.77;;;18.10;99.90;;;;;;5048010;28;20438;-50
2022/09/08 05:57:55;;;;;;;3.23;2.90;;;18.10;99.90;;;;;;5051441;28;20490;-47
2022/09/08 06:00:21;;;;;;;3.73;3.40;;;18.10;99.90;;;;;;5052007;28;20482;-51
2022/09/08 06:02:51;;;;;;;3.80;3.40;;;18.10;99.90;;;;;;5062778;28;20762;-50
2022/09/08 06:05:21;;;;;;;3.40;3.10;;;18.10;99.90;;;;;;5048679;28;20456;-48
2022/09/08 06:07:48;;;;;;;3.70;3.40;;;18.10;99.90;;;;;;5050989;28;20443;-49
2022/09/08 06:10:15;;;;;;;3.90;3.37;;;18.00;99.90;;;;;;5050521;28;20443;-52
2022/09/08 06:12:41;;;;;;;3.37;3.17;;;18.00;99.90;;;;;;5051645;28;20812;-48
2022/09/08 06:15:08;;;;;;;3.77;3.37;;;18.00;99.90;;;;;;5070823;28;20442;-51
2022/09/08 06:17:35;;;;;;;4.27;3.63;;;18.00;99.90;;;;;;5071074;28;20541;-47
2022/09/08 06:20:01;;;;;;;4.27;3.87;;;18.00;99.90;;;;;;5065601;28;20515;-50
2022/09/08 06:22:29;;;;;;;3.70;3.40;;;18.00;99.90;;;;;;5051234;28;20432;-49
2022/09/08 06:24:55;;;;;;;3.80;3.30;;;18.00;99.90;;;;;;5047344;28;20436;-51
2022/09/08 06:27:45;;;;;;;4.70;3.40;;;18.00;99.90;;;;;;5050463;28;20435;-48
2022/09/08 06:30:16;;;;;;;4.00;3.60;;;18.00;99.90;;;;;;5045477;28;20244;-47
2022/09/08 06:33:07;;;;;;;4.50;3.50;;;18.00;99.90;;;;;;5051136;28;20460;-47
2022/09/08 06:36:15;;;;;;;4.00;3.60;;;18.00;99.90;;;;;;5051028;28;20424;-50
2022/09/08 06:38:44;;;;;;;4.63;3.60;;;18.00;99.90;;;;;;5047288;28;20532;-49
2022/09/08 06:41:31;;;;;;;4.30;3.73;;;18.00;99.90;;;;;;5050215;28;20492;-48
2022/09/08 06:44:16;;;;;;;3.90;3.60;;;18.00;99.90;;;;;;5051388;28;20416;-48
2022/09/08 06:46:44;;;;;;;4.80;3.90;;;17.90;99.90;;;;;;5050453;28;20436;-50
2022/09/08 06:49:11;;;;;;;5.47;4.30;;;17.90;99.90;;;;;;5050656;28;20439;-45
2022/09/08 06:51:58;;;;;;;6.40;4.17;;;17.80;99.90;;;;;;5051301;28;20416;-48
2022/09/08 06:54:51;;;;;;;4.30;3.87;;;17.90;99.90;;;;;;5049023;28;20788;-53
2022/09/08 06:57:26;;;;;;;4.10;3.70;;;17.90;99.90;;;;;;5049827;28;20552;-50
2022/09/08 07:00:10;;;;;;;4.63;3.73;;;17.90;99.90;;;;;;5064881;28;21039;-47
2022/09/08 07:03:01;;;;;;;4.13;3.83;;;18.00;99.90;;;;;;5060823;28;20451;-46
2022/09/08 07:05:53;;;;;;;8.13;4.80;;;18.00;99.90;;;;;;5050801;28;20474;-48
2022/09/08 07:08:28;;;;;;;3.60;3.30;;;18.00;99.90;;;;;;5049845;28;20926;-47
2022/09/08 07:11:12;;;;;;;5.87;3.70;;;18.00;99.90;;;;;;5050518;28;20438;-50
2022/09/08 07:13:58;;;;;;;8.17;4.80;;;18.00;99.90;;;;;;5057206;28;20659;-51
2022/09/08 07:16:43;;;;;;;4.00;3.50;;;18.00;99.90;;;;;;5070427;28;20459;-51
2022/09/08 07:19:30;;;;;;;5.00;4.50;;;18.00;99.90;;;;;;5070278;28;20481;-50
2022/09/08 07:22:09;;;;;;;5.47;4.83;;;18.00;99.90;;;;;;5039867;28;20807;-50
2022/09/08 07:24:38;;;;;;;5.47;4.97;;;17.90;99.90;;;;;;5050206;28;20412;-49
2022/09/08 07:27:07;;;;;;;6.23;4.10;;;17.90;99.90;;;;;;5049759;28;20423;-47
2022/09/08 07:29:42;;;;;;;4.70;4.30;;;18.00;99.90;;;;;;5050243;28;20520;-48
2022/09/08 07:32:19;;;;;;;5.20;4.70;;;18.10;99.90;;;;;;5050550;28;20411;-51
2022/09/08 07:34:52;;;;;;;4.60;4.20;;;18.10;99.90;;;;;;5050266;28;20463;-51
2022/09/08 07:37:24;;;;;;;7.70;5.20;;;18.20;99.90;;;;;;5048626;28;20958;-49
2022/09/08 07:40:00;;;;;;;5.60;5.10;;;18.10;99.90;;;;;;5050320;28;20417;-52
2022/09/08 07:42:27;;;;;;;4.90;4.50;;;18.10;99.90;;;;;;5050150;28;20433;-48
2022/09/08 07:45:01;;;;;;;5.17;4.77;;;18.10;99.90;;;;;;5049914;28;20424;-49
2022/09/08 07:47:53;;;;;;;5.00;4.60;;;18.20;99.90;;;;;;5055059;28;20454;-47
2022/09/08 07:54:04;;;;;;;6.00;4.97;;;18.10;99.90;;;;;;5065803;28;20417;-49
2022/09/08 07:56:43;;;;;;;4.87;4.47;;;18.10;99.90;;;;;;5040328;28;20855;-51
2022/09/08 07:59:25;;;;;;;4.73;4.33;;;18.10;99.90;;;;;;5037363;28;20420;-49
2022/09/08 08:02:19;;;;;;;4.80;4.40;;;18.10;99.90;;;;;;5050045;28;20930;-49
2022/09/08 08:04:50;;;;;;;6.93;5.93;;;18.00;99.90;;;;;;5049570;28;20512;-45
2022/09/08 08:07:27;;;;;;;5.90;5.40;;;17.90;99.90;;;;;;5049116;28;20424;-45
2022/09/08 08:10:20;;;;;;;4.60;3.63;;;17.90;99.90;;;;;;5048473;28;20419;-51
2022/09/08 08:12:53;;;;;;;3.87;3.47;;;17.80;99.90;;;;;;5047557;28;20752;-51
2022/09/08 08:15:21;;;;;;;4.50;3.70;;;17.90;99.90;;;;;;5049829;28;20420;-51
2022/09/08 08:17:46;;;;;;;4.30;3.90;;;17.70;99.90;;;;;;5048983;28;20521;-51
2022/09/08 08:20:33;;;;;;;4.30;3.50;;;17.70;99.90;;;;;;5052691;28;20420;-50
2022/09/08 08:23:40;;;;;;;3.50;3.20;;;17.80;99.90;;;;;;5049668;28;20188;-51
2022/09/08 08:26:40;;;;;;;3.57;3.03;;;17.80;99.90;;;;;;5051526;28;20427;-48
2022/09/08 08:29:20;;;;;;;3.60;3.13;;;17.80;99.90;;;;;;5053706;28;20949;-47
2022/09/08 08:32:12;;;;;;;5.10;3.73;;;17.90;99.90;;;;;;5053558;28;21084;-51
2022/09/08 08:34:46;;;;;;;3.97;3.67;;;17.80;99.90;;;;;;5053869;28;20424;-51
2022/09/08 08:37:18;;;;;;;4.70;4.30;;;17.80;99.90;;;;;;5051876;28;20546;-50
2022/09/08 08:39:48;;;;;;;5.93;4.23;;;17.70;99.90;;;;;;5053722;28;20427;-50
2022/09/08 08:42:29;;;;;;;6.40;3.77;;;17.70;99.90;;;;;;5052003;28;20509;-50
2022/09/08 08:45:18;;;;;;;7.20;5.03;;;17.70;99.90;;;;;;5053606;28;20416;-53
2022/09/08 08:47:59;;;;;;;4.80;3.63;;;17.70;99.90;;;;;;5052671;28;21288;-51
2022/09/08 08:50:56;;;;;;;4.30;3.90;;;17.70;99.90;;;;;;5053179;28;20459;-53
2022/09/08 08:53:37;;;;;;;5.10;4.17;;;17.80;99.90;;;;;;5046194;28;20511;-51
2022/09/08 08:56:27;;;;;;;4.73;4.00;;;17.90;99.90;;;;;;5053410;28;20438;-52
2022/09/08 08:59:20;;;;;;;6.10;4.27;;;17.90;99.90;;;;;;5052253;28;20987;-48
2022/09/08 09:01:54;;;;;;;5.47;4.17;;;18.00;99.90;;;;;;5053343;28;20448;-47
2022/09/08 09:04:52;;;;;;;5.30;3.70;;;18.10;99.90;;;;;;5053046;28;20425;-49
2022/09/08 09:07:45;;;;;;;5.03;4.40;;;18.10;99.90;;;;;;5052530;28;20436;-51
2022/09/08 09:10:32;;;;;;;4.77;4.00;;;18.00;99.90;;;;;;5053251;28;20466;-50
2022/09/08 09:13:03;;;;;;;4.43;4.03;;;18.00;99.90;;;;;;5052978;28;20416;-50
2022/09/08 09:15:41;;;;;;;5.93;4.43;;;17.90;99.90;;;;;;5051560;28;20432;-48
2022/09/08 09:18:35;;;;;;;5.40;4.50;;;18.00;99.90;;;;;;5052145;28;20470;-50
2022/09/08 09:21:32;;;;;;;4.77;4.37;;;17.90;99.90;;;;;;5055842;28;20420;-48
2022/09/08 09:24:09;;;;;;;7.70;4.00;;;18.00;99.90;;;;;;5052700;28;20427;-49
2022/09/08 09:26:35;;;;;;;4.03;3.63;;;18.00;99.90;;;;;;5052238;28;20474;-50
2022/09/08 09:29:21;;;;;;;4.50;3.10;;;18.10;99.90;;;;;;5052333;28;20454;-50
2022/09/08 09:32:05;;;;;;;6.03;3.33;;;18.20;99.90;;;;;;5052595;28;20443;-48
2022/09/08 09:34:36;;;;;;;5.17;3.20;;;18.20;99.90;;;;;;5052497;28;20443;-48
2022/09/08 09:37:38;;;;;;;2.83;2.50;;;18.20;99.90;;;;;;5050241;28;20456;-51
2022/09/08 09:40:38;;;;;;;4.20;3.20;;;18.20;99.90;;;;;;5052394;28;20427;-49
2022/09/08 09:43:25;;;;;;;2.60;2.40;;;18.30;99.90;;;;;;5042029;28;20487;-50
2022/09/08 09:46:18;;;;;;;4.03;2.37;;;18.30;99.90;;;;;;5052189;28;20443;-52
2022/09/08 09:48:52;;;;;;;2.50;2.27;;;18.20;99.90;;;;;;5051414;28;20810;-50
2022/09/08 09:51:21;;;;;;;4.60;3.07;;;18.30;99.90;;;;;;5052310;28;20647;-51
2022/09/08 09:54:06;;;;;;;3.30;2.47;;;18.40;99.90;;;;;;5052181;28;20439;-48
2022/09/08 09:57:08;;;;;;;3.70;2.30;;;18.40;99.90;;;;;;5050404;28;21112;-45
2022/09/08 10:00:28;;;;;;;3.90;2.53;;;18.30;99.90;;;;;;5043406;28;20419;-50
2022/09/08 10:03:20;;;;;;;3.70;2.60;;;18.30;99.90;;;;;;5051830;28;20432;-46
2022/09/08 10:06:20;;;;;;;4.10;1.87;;;18.40;99.90;;;;;;5051697;28;20451;-51
2022/09/08 10:09:10;;;;;;;8.10;2.70;;;18.50;99.90;;;;;;5057911;28;20434;-50
2022/09/08 10:11:57;;;;;;;3.90;2.73;;;18.70;99.90;;;;;;5051470;28;20481;-47
2022/09/08 10:14:41;;;;;;;4.03;2.60;;;18.80;99.90;;;;;;5050454;28;20452;-50
2022/09/08 10:17:23;;;;;;;4.97;2.03;;;18.90;99.90;;;;;;5051000;28;20452;-50
2022/09/08 10:20:19;;;;;;;2.50;2.30;;;18.90;99.90;;;;;;5054852;28;20432;-48
2022/09/08 10:23:23;;;;;;;1.90;1.80;;;19.00;99.90;;;;;;5051666;28;20814;-47
2022/09/08 10:25:52;;;;;;;3.20;2.77;;;19.10;99.90;;;;;;5051382;28;20424;-51
2022/09/08 10:28:51;;;;;;;3.20;2.47;;;19.10;99.90;;;;;;5050647;28;21088;-49
2022/09/08 10:31:32;;;;;;;2.90;2.33;;;19.20;99.90;;;;;;5051343;28;20428;-49
2022/09/08 10:34:25;;;;;;;2.53;2.07;;;19.30;99.90;;;;;;5051286;28;20420;-46
2022/09/08 10:37:03;;;;;;;3.90;2.50;;;19.40;99.90;;;;;;5049551;28;20460;-48
2022/09/08 10:40:00;;;;;;;4.30;2.03;;;19.60;99.90;;;;;;5051357;28;20451;-46
2022/09/08 10:42:48;;;;;;;3.40;2.37;;;19.80;99.90;;;;;;5047748;28;20417;-50
2022/09/08 10:45:28;;;;;;;2.83;2.47;;;20.00;99.90;;;;;;5048406;28;20462;-49
2022/09/08 10:48:32;;;;;;;2.63;2.20;;;20.20;99.90;;;;;;5047159;28;20447;-50
2022/09/08 10:51:18;;;;;;;3.87;2.17;;;20.50;99.90;;;;;;5051055;28;20434;-51
2022/09/08 10:54:25;;;;;;;2.27;1.93;;;20.70;99.90;;;;;;5049825;28;20487;-50
2022/09/08 10:56:53;;;;;;;3.37;1.97;;;20.90;99.90;;;;;;5067490;28;20471;-49
2022/09/08 10:59:37;;;;;;;2.60;1.80;;;21.00;99.90;;;;;;5047514;28;20468;-52
2022/09/08 11:02:27;;;;;;;2.60;1.90;;;20.90;99.90;;;;;;5051045;28;20420;-50
2022/09/08 11:05:13;;;;;;;3.73;1.77;;;20.70;99.90;;;;;;5050793;28;20448;-50
2022/09/08 11:08:20;;;;;;;4.17;2.10;;;20.50;99.90;;;;;;5050157;28;20424;-50
2022/09/08 11:11:13;;;;;;;1.80;1.60;;;20.40;99.90;;;;;;5050795;28;20515;-51
2022/09/08 11:13:59;;;;;;;3.07;2.30;;;20.50;99.90;;;;;;5050606;28;20477;-50
2022/09/08 11:16:40;;;;;;;2.83;1.80;;;20.60;99.90;;;;;;5046529;28;20566;-52
2022/09/08 11:19:36;;;;;;;1.70;1.60;;;20.70;99.90;;;;;;5049201;28;20425;-46
2022/09/08 11:22:20;;;;;;;3.13;1.40;;;20.60;99.90;;;;;;5038771;28;20424;-49
2022/09/08 11:25:15;;;;;;;2.00;1.33;;;20.50;99.90;;;;;;5050233;28;20481;-49
2022/09/08 11:28:07;;;;;;;1.90;1.43;;;20.40;99.90;;;;;;5048415;28;20962;-51
2022/09/08 11:30:37;;;;;;;3.43;1.60;;;20.20;99.90;;;;;;5050434;28;20431;-49
2022/09/08 11:33:30;;;;;;;1.73;1.40;;;20.40;99.90;;;;;;5050098;28;20511;-50
2022/09/08 11:36:02;;;;;;;2.13;1.20;;;20.70;99.90;;;;;;5049120;28;20957;-50
2022/09/08 11:39:03;;;;;;;1.40;1.20;;;20.90;99.90;;;;;;5048668;28;20432;-51
2022/09/08 11:41:47;;;;;;;1.57;1.00;;;21.10;99.90;;;;;;5050074;28;20410;-48
2022/09/08 11:44:46;;;;;;;2.30;1.10;;;21.20;99.90;;;;;;5050086;28;20428;-50
2022/09/08 11:47:33;;;;;;;1.77;1.27;;;21.30;99.90;;;;;;5049346;28;20790;-49
2022/09/08 11:50:04;;;;;;;1.87;1.10;;;21.40;99.90;;;;;;5050143;28;20440;-49
2022/09/08 11:52:36;;;;;;;2.30;1.10;;;21.50;99.90;;;;;;5050025;28;20842;-49
2022/09/08 11:55:42;;;;;;;2.10;1.10;;;21.60;99.90;;;;;;5049091;28;21003;-48
2022/09/08 11:58:27;;;;;;;2.97;1.40;;;21.70;99.90;;;;;;5065377;28;20470;-50
2022/09/08 12:01:02;;;;;;;2.03;1.30;;;21.80;99.90;;;;;;5041456;28;20518;-51
2022/09/08 12:03:49;;;;;;;1.30;1.20;;;21.80;99.90;;;;;;5048471;28;20777;-47
2022/09/08 12:06:42;;;;;;;1.63;0.97;;;21.90;99.90;;;;;;5049597;28;20444;-51
2022/09/08 12:09:41;;;;;;;2.10;1.40;;;22.00;99.90;;;;;;5049964;28;20420;-51
2022/09/08 12:12:44;;;;;;;3.30;1.03;;;22.10;99.90;;;;;;5049698;28;20459;-48
2022/09/08 12:15:49;;;;;;;2.80;0.90;;;21.90;99.90;;;;;;5049870;28;20416;-49
2022/09/08 12:18:51;;;;;;;3.60;0.90;;;21.80;99.90;;;;;;5048249;28;20478;-50
2022/09/08 12:21:45;;;;;;;2.17;1.10;;;21.70;99.90;;;;;;5046866;28;20428;-49
2022/09/08 12:24:35;;;;;;;2.63;1.00;;;21.90;99.90;;;;;;5049391;28;20420;-48
2022/09/08 12:27:12;;;;;;;4.53;0.67;;;22.00;99.90;;;;;;5047580;28;20419;-52
2022/09/08 12:29:46;;;;;;;1.17;0.70;;;22.00;99.90;;;;;;5049399;28;20712;-49
2022/09/08 12:32:43;;;;;;;2.23;0.93;;;22.00;99.90;;;;;;5049831;28;20416;-49
2022/09/08 12:35:28;;;;;;;3.23;0.90;;;22.10;99.90;;;;;;5049558;28;20833;-50
2022/09/08 12:38:01;;;;;;;1.40;0.80;;;22.30;99.90;;;;;;5048128;28;20467;-49
2022/09/08 12:41:05;;;;;;;3.17;1.87;;;22.40;99.90;;;;;;5049453;28;20518;-46
2022/09/08 12:43:43;;;;;;;1.10;0.90;;;22.40;99.90;;;;;;5049538;28;20424;-45
2022/09/08 12:46:09;;;;;;;1.60;0.77;;;22.30;99.90;;;;;;5049428;28;20416;-47
2022/09/08 12:48:47;;;;;;;1.87;0.70;;;22.20;99.90;;;;;;5048881;28;20455;-49
2022/09/08 12:51:26;;;;;;;1.37;0.90;;;22.00;99.90;;;;;;5049508;28;20941;-49
2022/09/08 12:54:12;;;;;;;1.80;1.07;;;21.90;99.90;;;;;;5049467;28;20412;-47
2022/09/08 12:56:54;;;;;;;1.97;1.27;;;21.80;99.90;;;;;;5047747;28;20467;-47
2022/09/08 12:59:51;;;;;;;1.60;0.97;;;21.80;99.90;;;;;;5049444;28;20831;-49
2022/09/08 13:02:35;;;;;;;2.30;1.07;;;21.70;99.90;;;;;;5049281;28;20774;-52
2022/09/08 13:05:55;;;;;;;2.13;1.20;;;21.70;99.90;;;;;;5049264;28;20447;-48
2022/09/08 13:08:54;;;;;;;2.03;1.17;;;21.70;99.90;;;;;;5065724;28;20518;-45
2022/09/08 13:11:34;;;;;;;1.90;0.97;;;21.80;99.90;;;;;;5043864;28;20419;-49
2022/09/08 13:14:11;;;;;;;1.10;0.93;;;21.70;99.90;;;;;;5053027;28;20477;-49
2022/09/08 13:16:58;;;;;;;2.30;0.90;;;21.70;99.90;;;;;;5052182;28;20503;-52
2022/09/08 13:19:28;;;;;;;1.93;0.87;;;21.70;99.90;;;;;;5057266;28;20932;-49
2022/09/08 13:22:14;;;;;;;1.67;0.87;;;21.80;99.90;;;;;;5072761;28;20424;-48
2022/09/08 13:24:58;;;;;;;1.30;0.80;;;22.00;99.90;;;;;;5069300;28;20415;-46
2022/09/08 13:28:02;;;;;;;2.57;1.30;;;22.30;99.90;;;;;;5051655;28;20438;-51
2022/09/08 13:31:09;;;;;;;0.80;0.60;;;22.40;99.90;;;;;;5052794;28;20427;-46
2022/09/08 13:33:50;;;;;;;1.10;0.83;;;22.40;99.90;;;;;;5069437;28;20506;-49
2022/09/08 13:36:53;;;;;;;1.90;0.97;;;22.40;99.90;;;;;;5042924;28;20497;-52
2022/09/08 13:39:41;;;;;;;2.77;0.97;;;22.40;99.90;;;;;;5052285;28;20435;-47
2022/09/08 13:42:49;;;;;;;2.93;1.20;;;22.30;99.90;;;;;;5052081;28;20431;-48
2022/09/08 13:45:47;;;;;;;3.40;1.30;;;22.20;99.90;;;;;;5052121;28;20502;-46
2022/09/08 13:48:22;;;;;;;3.07;1.17;;;22.10;99.90;;;;;;5055109;28;20481;-49